sensor_id;sensor_type;location;lat;lon;timestamp;P1;durP1;ratioP1;P2;durP2;ratioP2
42840;SDS011;28491;46.898;7.660;2023-02-01T00:01:53;11.93;;;7.43;;
42840;SDS011;28491;46.898;7.660;2023-02-01T00:04:19;10.00;;;6.78;;
42840;SDS011;28491;46.898;7.660;2023-02-01T00:06:44;23.02;;;10.23;;
42840;SDS011;28491;46.898;7.660;2023-02-01T00:09:10;12.00;;;7.78;;
42840;SDS011;28491;46.898;7.660;2023-02-01T00:11:35;11.25;;;7.38;;
42840;SDS011;28491;46.898;7.660;2023-02-01T00:14:01;15.82;;;7.47;;
42840;SDS011;28491;46.898;7.660;2023-02-01T00:16:27;10.00;;;6.93;;
42840;SDS011;28491;46.898;7.660;2023-02-01T00:19:04;11.52;;;6.43;;
42840;SDS011;28491;46.898;7.660;2023-02-01T00:21:37;12.98;;;5.93;;
42840;SDS011;28491;46.898;7.660;2023-02-01T00:24:03;11.50;;;6.88;;
42840;SDS011;28491;46.898;7.660;2023-02-01T00:26:36;12.52;;;6.80;;
42840;SDS011;28491;46.898;7.660;2023-02-01T00:29:04;13.63;;;7.47;;
42840;SDS011;28491;46.898;7.660;2023-02-01T00:31:34;15.02;;;7.88;;
42840;SDS011;28491;46.898;7.660;2023-02-01T00:33:59;11.65;;;6.95;;
42840;SDS011;28491;46.898;7.660;2023-02-01T00:36:25;9.25;;;6.60;;
42840;SDS011;28491;46.898;7.660;2023-02-01T00:38:51;11.48;;;6.53;;
42840;SDS011;28491;46.898;7.660;2023-02-01T00:41:17;13.07;;;8.07;;
42840;SDS011;28491;46.898;7.660;2023-02-01T00:43:44;10.05;;;6.80;;
42840;SDS011;28491;46.898;7.660;2023-02-01T00:46:11;11.80;;;6.65;;
42840;SDS011;28491;46.898;7.660;2023-02-01T00:48:37;9.05;;;6.45;;
42840;SDS011;28491;46.898;7.660;2023-02-01T00:51:05;11.57;;;6.68;;
42840;SDS011;28491;46.898;7.660;2023-02-01T00:53:36;12.43;;;6.93;;
42840;SDS011;28491;46.898;7.660;2023-02-01T00:56:02;11.80;;;6.80;;
42840;SDS011;28491;46.898;7.660;2023-02-01T00:58:28;9.65;;;6.28;;
42840;SDS011;28491;46.898;7.660;2023-02-01T01:01:07;8.98;;;6.25;;
42840;SDS011;28491;46.898;7.660;2023-02-01T01:03:35;8.82;;;5.60;;
42840;SDS011;28491;46.898;7.660;2023-02-01T01:06:07;8.88;;;6.20;;
42840;SDS011;28491;46.898;7.660;2023-02-01T01:08:34;11.93;;;7.00;;
42840;SDS011;28491;46.898;7.660;2023-02-01T01:11:07;11.57;;;6.25;;
42840;SDS011;28491;46.898;7.660;2023-02-01T01:13:36;10.73;;;6.97;;
42840;SDS011;28491;46.898;7.660;2023-02-01T01:16:02;11.95;;;6.65;;
42840;SDS011;28491;46.898;7.660;2023-02-01T01:18:29;12.75;;;6.97;;
42840;SDS011;28491;46.898;7.660;2023-02-01T01:20:56;10.63;;;6.95;;
42840;SDS011;28491;46.898;7.660;2023-02-01T01:23:22;13.60;;;7.55;;
42840;SDS011;28491;46.898;7.660;2023-02-01T01:25:48;11.27;;;7.45;;
42840;SDS011;28491;46.898;7.660;2023-02-01T01:28:14;10.35;;;6.57;;
42840;SDS011;28491;46.898;7.660;2023-02-01T01:30:40;10.55;;;6.28;;
42840;SDS011;28491;46.898;7.660;2023-02-01T01:33:05;9.18;;;6.68;;
42840;SDS011;28491;46.898;7.660;2023-02-01T01:35:31;13.43;;;7.57;;
42840;SDS011;28491;46.898;7.660;2023-02-01T01:37:57;10.95;;;6.60;;
42840;SDS011;28491;46.898;7.660;2023-02-01T01:40:24;12.13;;;6.55;;
42840;SDS011;28491;46.898;7.660;2023-02-01T01:42:50;13.93;;;7.78;;
42840;SDS011;28491;46.898;7.660;2023-02-01T01:47:56;12.52;;;7.43;;
42840;SDS011;28491;46.898;7.660;2023-02-01T01:50:26;14.05;;;7.60;;
42840;SDS011;28491;46.898;7.660;2023-02-01T01:52:55;10.52;;;6.78;;
42840;SDS011;28491;46.898;7.660;2023-02-01T01:55:24;11.32;;;7.30;;
42840;SDS011;28491;46.898;7.660;2023-02-01T01:57:57;13.07;;;7.15;;
42840;SDS011;28491;46.898;7.660;2023-02-01T02:00:26;9.48;;;6.97;;
42840;SDS011;28491;46.898;7.660;2023-02-01T02:03:00;12.40;;;7.20;;
42840;SDS011;28491;46.898;7.660;2023-02-01T02:05:38;12.32;;;7.47;;
42840;SDS011;28491;46.898;7.660;2023-02-01T02:08:04;13.00;;;7.72;;
42840;SDS011;28491;46.898;7.660;2023-02-01T02:10:29;11.35;;;7.05;;
42840;SDS011;28491;46.898;7.660;2023-02-01T02:13:14;14.02;;;7.30;;
42840;SDS011;28491;46.898;7.660;2023-02-01T02:15:43;13.25;;;7.93;;
42840;SDS011;28491;46.898;7.660;2023-02-01T02:18:16;14.00;;;8.50;;
42840;SDS011;28491;46.898;7.660;2023-02-01T02:21:06;13.63;;;7.90;;
42840;SDS011;28491;46.898;7.660;2023-02-01T02:26:34;8.88;;;6.63;;
42840;SDS011;28491;46.898;7.660;2023-02-01T02:29:15;11.43;;;7.22;;
42840;SDS011;28491;46.898;7.660;2023-02-01T02:31:57;14.13;;;7.97;;
42840;SDS011;28491;46.898;7.660;2023-02-01T02:34:44;16.30;;;7.63;;
42840;SDS011;28491;46.898;7.660;2023-02-01T02:37:48;13.93;;;7.00;;
42840;SDS011;28491;46.898;7.660;2023-02-01T02:40:35;13.55;;;7.60;;
42840;SDS011;28491;46.898;7.660;2023-02-01T02:43:11;14.48;;;7.35;;
42840;SDS011;28491;46.898;7.660;2023-02-01T02:46:14;12.80;;;7.82;;
42840;SDS011;28491;46.898;7.660;2023-02-01T02:51:55;12.23;;;7.60;;
42840;SDS011;28491;46.898;7.660;2023-02-01T02:54:46;11.57;;;7.45;;
42840;SDS011;28491;46.898;7.660;2023-02-01T02:57:32;10.50;;;6.60;;
42840;SDS011;28491;46.898;7.660;2023-02-01T03:03:08;12.70;;;6.95;;
42840;SDS011;28491;46.898;7.660;2023-02-01T03:05:52;15.25;;;6.78;;
42840;SDS011;28491;46.898;7.660;2023-02-01T03:08:18;10.80;;;7.22;;
42840;SDS011;28491;46.898;7.660;2023-02-01T03:13:13;16.05;;;7.00;;
42840;SDS011;28491;46.898;7.660;2023-02-01T03:18:37;11.13;;;7.40;;
42840;SDS011;28491;46.898;7.660;2023-02-01T03:21:17;9.80;;;6.55;;
42840;SDS011;28491;46.898;7.660;2023-02-01T03:23:49;10.00;;;6.65;;
42840;SDS011;28491;46.898;7.660;2023-02-01T03:26:17;16.85;;;7.05;;
42840;SDS011;28491;46.898;7.660;2023-02-01T03:28:47;12.35;;;7.07;;
42840;SDS011;28491;46.898;7.660;2023-02-01T03:31:17;11.05;;;6.60;;
42840;SDS011;28491;46.898;7.660;2023-02-01T03:33:43;10.52;;;7.22;;
42840;SDS011;28491;46.898;7.660;2023-02-01T03:36:25;11.98;;;7.47;;
42840;SDS011;28491;46.898;7.660;2023-02-01T03:39:06;13.55;;;7.72;;
42840;SDS011;28491;46.898;7.660;2023-02-01T03:41:35;12.00;;;7.70;;
42840;SDS011;28491;46.898;7.660;2023-02-01T03:44:11;13.75;;;8.02;;
42840;SDS011;28491;46.898;7.660;2023-02-01T03:46:50;12.27;;;6.78;;
42840;SDS011;28491;46.898;7.660;2023-02-01T03:49:22;12.23;;;6.93;;
42840;SDS011;28491;46.898;7.660;2023-02-01T03:51:56;20.35;;;7.45;;
42840;SDS011;28491;46.898;7.660;2023-02-01T03:54:25;17.38;;;8.65;;
42840;SDS011;28491;46.898;7.660;2023-02-01T03:56:52;24.25;;;9.75;;
42840;SDS011;28491;46.898;7.660;2023-02-01T03:59:20;14.45;;;7.07;;
42840;SDS011;28491;46.898;7.660;2023-02-01T04:01:46;15.68;;;8.95;;
42840;SDS011;28491;46.898;7.660;2023-02-01T04:04:12;11.70;;;7.32;;
42840;SDS011;28491;46.898;7.660;2023-02-01T04:06:44;11.98;;;6.68;;
42840;SDS011;28491;46.898;7.660;2023-02-01T04:09:11;12.90;;;6.75;;
42840;SDS011;28491;46.898;7.660;2023-02-01T04:11:36;12.32;;;7.47;;
42840;SDS011;28491;46.898;7.660;2023-02-01T04:14:02;13.55;;;7.95;;
42840;SDS011;28491;46.898;7.660;2023-02-01T04:16:29;12.65;;;7.82;;
42840;SDS011;28491;46.898;7.660;2023-02-01T04:18:55;13.32;;;7.38;;
42840;SDS011;28491;46.898;7.660;2023-02-01T04:21:21;13.77;;;8.10;;
42840;SDS011;28491;46.898;7.660;2023-02-01T04:23:46;11.82;;;7.72;;
42840;SDS011;28491;46.898;7.660;2023-02-01T04:26:12;11.52;;;6.82;;
42840;SDS011;28491;46.898;7.660;2023-02-01T04:28:37;12.82;;;7.47;;
42840;SDS011;28491;46.898;7.660;2023-02-01T04:31:03;12.90;;;7.50;;
42840;SDS011;28491;46.898;7.660;2023-02-01T04:33:28;14.43;;;8.57;;
42840;SDS011;28491;46.898;7.660;2023-02-01T04:35:54;15.05;;;10.85;;
42840;SDS011;28491;46.898;7.660;2023-02-01T04:38:20;16.02;;;9.10;;
42840;SDS011;28491;46.898;7.660;2023-02-01T04:40:48;13.68;;;9.07;;
42840;SDS011;28491;46.898;7.660;2023-02-01T04:43:15;13.30;;;8.35;;
42840;SDS011;28491;46.898;7.660;2023-02-01T04:45:41;14.88;;;8.98;;
42840;SDS011;28491;46.898;7.660;2023-02-01T04:48:06;14.15;;;7.93;;
42840;SDS011;28491;46.898;7.660;2023-02-01T04:50:32;13.50;;;8.60;;
42840;SDS011;28491;46.898;7.660;2023-02-01T04:52:57;14.55;;;8.38;;
42840;SDS011;28491;46.898;7.660;2023-02-01T04:55:23;14.48;;;9.07;;
42840;SDS011;28491;46.898;7.660;2023-02-01T04:57:48;17.00;;;9.13;;
42840;SDS011;28491;46.898;7.660;2023-02-01T05:00:14;14.23;;;8.38;;
42840;SDS011;28491;46.898;7.660;2023-02-01T05:02:40;16.63;;;9.55;;
42840;SDS011;28491;46.898;7.660;2023-02-01T05:05:06;14.52;;;8.07;;
42840;SDS011;28491;46.898;7.660;2023-02-01T05:07:31;14.88;;;7.90;;
42840;SDS011;28491;46.898;7.660;2023-02-01T05:09:57;14.38;;;8.48;;
42840;SDS011;28491;46.898;7.660;2023-02-01T05:12:22;16.02;;;9.48;;
42840;SDS011;28491;46.898;7.660;2023-02-01T05:15:20;14.27;;;8.73;;
42840;SDS011;28491;46.898;7.660;2023-02-01T05:17:46;18.40;;;9.88;;
42840;SDS011;28491;46.898;7.660;2023-02-01T05:20:11;21.38;;;11.05;;
42840;SDS011;28491;46.898;7.660;2023-02-01T05:22:37;13.77;;;7.65;;
42840;SDS011;28491;46.898;7.660;2023-02-01T05:25:02;13.68;;;8.25;;
42840;SDS011;28491;46.898;7.660;2023-02-01T05:27:29;19.38;;;9.80;;
42840;SDS011;28491;46.898;7.660;2023-02-01T05:29:56;13.23;;;9.20;;
42840;SDS011;28491;46.898;7.660;2023-02-01T05:32:21;17.83;;;9.27;;
42840;SDS011;28491;46.898;7.660;2023-02-01T05:34:47;14.93;;;8.40;;
42840;SDS011;28491;46.898;7.660;2023-02-01T05:37:12;20.42;;;11.20;;
42840;SDS011;28491;46.898;7.660;2023-02-01T05:39:37;16.98;;;8.82;;
42840;SDS011;28491;46.898;7.660;2023-02-01T05:42:03;16.25;;;9.77;;
42840;SDS011;28491;46.898;7.660;2023-02-01T05:44:28;14.35;;;8.98;;
42840;SDS011;28491;46.898;7.660;2023-02-01T05:46:54;13.75;;;8.93;;
42840;SDS011;28491;46.898;7.660;2023-02-01T05:49:20;15.68;;;8.60;;
42840;SDS011;28491;46.898;7.660;2023-02-01T05:51:45;16.52;;;10.52;;
42840;SDS011;28491;46.898;7.660;2023-02-01T05:54:11;13.05;;;8.98;;
42840;SDS011;28491;46.898;7.660;2023-02-01T05:56:36;17.27;;;10.93;;
42840;SDS011;28491;46.898;7.660;2023-02-01T05:59:02;18.70;;;10.52;;
42840;SDS011;28491;46.898;7.660;2023-02-01T06:01:27;15.35;;;9.38;;
42840;SDS011;28491;46.898;7.660;2023-02-01T06:03:53;18.13;;;10.10;;
42840;SDS011;28491;46.898;7.660;2023-02-01T06:06:18;21.45;;;10.63;;
42840;SDS011;28491;46.898;7.660;2023-02-01T06:08:44;18.70;;;10.20;;
42840;SDS011;28491;46.898;7.660;2023-02-01T06:11:10;19.55;;;9.45;;
42840;SDS011;28491;46.898;7.660;2023-02-01T06:13:36;17.83;;;9.68;;
42840;SDS011;28491;46.898;7.660;2023-02-01T06:16:03;18.38;;;9.45;;
42840;SDS011;28491;46.898;7.660;2023-02-01T06:18:30;17.73;;;9.27;;
42840;SDS011;28491;46.898;7.660;2023-02-01T06:20:56;12.75;;;9.00;;
42840;SDS011;28491;46.898;7.660;2023-02-01T06:23:24;15.77;;;9.05;;
42840;SDS011;28491;46.898;7.660;2023-02-01T06:25:51;16.38;;;9.45;;
42840;SDS011;28491;46.898;7.660;2023-02-01T06:28:18;16.35;;;10.20;;
42840;SDS011;28491;46.898;7.660;2023-02-01T06:30:44;21.83;;;9.07;;
42840;SDS011;28491;46.898;7.660;2023-02-01T06:33:11;16.63;;;9.32;;
42840;SDS011;28491;46.898;7.660;2023-02-01T06:35:39;17.17;;;9.68;;
42840;SDS011;28491;46.898;7.660;2023-02-01T06:38:07;19.10;;;10.43;;
42840;SDS011;28491;46.898;7.660;2023-02-01T06:40:32;18.23;;;10.75;;
42840;SDS011;28491;46.898;7.660;2023-02-01T06:42:58;23.60;;;10.23;;
42840;SDS011;28491;46.898;7.660;2023-02-01T06:45:24;19.08;;;11.23;;
42840;SDS011;28491;46.898;7.660;2023-02-01T06:47:49;16.58;;;10.75;;
42840;SDS011;28491;46.898;7.660;2023-02-01T06:50:15;16.35;;;10.20;;
42840;SDS011;28491;46.898;7.660;2023-02-01T06:52:41;20.77;;;12.05;;
42840;SDS011;28491;46.898;7.660;2023-02-01T06:55:06;19.20;;;9.90;;
42840;SDS011;28491;46.898;7.660;2023-02-01T06:57:32;14.20;;;9.60;;
42840;SDS011;28491;46.898;7.660;2023-02-01T06:59:59;20.13;;;11.00;;
42840;SDS011;28491;46.898;7.660;2023-02-01T07:02:24;15.60;;;9.77;;
42840;SDS011;28491;46.898;7.660;2023-02-01T07:04:50;23.60;;;13.57;;
42840;SDS011;28491;46.898;7.660;2023-02-01T07:07:15;22.45;;;13.27;;
42840;SDS011;28491;46.898;7.660;2023-02-01T07:09:41;21.17;;;12.65;;
42840;SDS011;28491;46.898;7.660;2023-02-01T07:12:07;18.80;;;10.80;;
42840;SDS011;28491;46.898;7.660;2023-02-01T07:14:32;21.55;;;12.23;;
42840;SDS011;28491;46.898;7.660;2023-02-01T07:16:58;22.85;;;12.48;;
42840;SDS011;28491;46.898;7.660;2023-02-01T07:19:24;25.00;;;12.75;;
42840;SDS011;28491;46.898;7.660;2023-02-01T07:21:49;17.95;;;11.60;;
42840;SDS011;28491;46.898;7.660;2023-02-01T07:24:15;16.42;;;9.93;;
42840;SDS011;28491;46.898;7.660;2023-02-01T07:26:40;17.60;;;10.23;;
42840;SDS011;28491;46.898;7.660;2023-02-01T07:29:06;20.40;;;11.82;;
42840;SDS011;28491;46.898;7.660;2023-02-01T07:31:32;22.15;;;12.13;;
42840;SDS011;28491;46.898;7.660;2023-02-01T07:33:57;17.90;;;11.70;;
42840;SDS011;28491;46.898;7.660;2023-02-01T07:36:23;17.85;;;11.27;;
42840;SDS011;28491;46.898;7.660;2023-02-01T07:38:49;18.90;;;11.00;;
42840;SDS011;28491;46.898;7.660;2023-02-01T07:41:16;17.45;;;10.77;;
42840;SDS011;28491;46.898;7.660;2023-02-01T07:43:42;15.57;;;10.02;;
42840;SDS011;28491;46.898;7.660;2023-02-01T07:46:09;22.10;;;13.13;;
42840;SDS011;28491;46.898;7.660;2023-02-01T07:48:35;16.55;;;8.98;;
42840;SDS011;28491;46.898;7.660;2023-02-01T07:51:02;16.15;;;9.45;;
42840;SDS011;28491;46.898;7.660;2023-02-01T07:53:29;25.42;;;10.40;;
42840;SDS011;28491;46.898;7.660;2023-02-01T07:55:56;15.40;;;10.02;;
42840;SDS011;28491;46.898;7.660;2023-02-01T07:58:22;14.77;;;9.25;;
42840;SDS011;28491;46.898;7.660;2023-02-01T08:00:48;19.27;;;11.10;;
42840;SDS011;28491;46.898;7.660;2023-02-01T08:03:32;22.33;;;10.45;;
42840;SDS011;28491;46.898;7.660;2023-02-01T08:05:58;14.23;;;9.00;;
42840;SDS011;28491;46.898;7.660;2023-02-01T08:08:24;17.00;;;9.27;;
42840;SDS011;28491;46.898;7.660;2023-02-01T08:10:49;16.10;;;10.77;;
42840;SDS011;28491;46.898;7.660;2023-02-01T08:13:15;16.95;;;10.75;;
42840;SDS011;28491;46.898;7.660;2023-02-01T08:15:41;18.10;;;10.93;;
42840;SDS011;28491;46.898;7.660;2023-02-01T08:18:07;15.80;;;9.52;;
42840;SDS011;28491;46.898;7.660;2023-02-01T08:20:33;17.77;;;9.55;;
42840;SDS011;28491;46.898;7.660;2023-02-01T08:23:00;16.93;;;10.40;;
42840;SDS011;28491;46.898;7.660;2023-02-01T08:25:26;21.58;;;11.30;;
42840;SDS011;28491;46.898;7.660;2023-02-01T08:27:52;14.98;;;9.00;;
42840;SDS011;28491;46.898;7.660;2023-02-01T08:30:19;14.68;;;9.85;;
42840;SDS011;28491;46.898;7.660;2023-02-01T08:32:45;16.75;;;10.20;;
42840;SDS011;28491;46.898;7.660;2023-02-01T08:35:11;18.00;;;10.52;;
42840;SDS011;28491;46.898;7.660;2023-02-01T08:37:36;19.15;;;10.23;;
42840;SDS011;28491;46.898;7.660;2023-02-01T08:40:02;16.27;;;10.23;;
42840;SDS011;28491;46.898;7.660;2023-02-01T08:42:28;14.65;;;10.57;;
42840;SDS011;28491;46.898;7.660;2023-02-01T08:45:13;16.55;;;9.93;;
42840;SDS011;28491;46.898;7.660;2023-02-01T08:47:38;16.15;;;10.15;;
42840;SDS011;28491;46.898;7.660;2023-02-01T08:50:04;16.52;;;10.55;;
42840;SDS011;28491;46.898;7.660;2023-02-01T08:52:30;15.23;;;10.82;;
42840;SDS011;28491;46.898;7.660;2023-02-01T08:54:56;13.93;;;9.93;;
42840;SDS011;28491;46.898;7.660;2023-02-01T08:57:21;17.50;;;9.15;;
42840;SDS011;28491;46.898;7.660;2023-02-01T08:59:47;14.23;;;9.13;;
42840;SDS011;28491;46.898;7.660;2023-02-01T09:02:15;14.70;;;10.00;;
42840;SDS011;28491;46.898;7.660;2023-02-01T09:07:10;23.73;;;12.85;;
42840;SDS011;28491;46.898;7.660;2023-02-01T09:09:36;23.45;;;13.30;;
42840;SDS011;28491;46.898;7.660;2023-02-01T09:12:02;23.70;;;14.25;;
42840;SDS011;28491;46.898;7.660;2023-02-01T09:14:28;19.88;;;13.73;;
42840;SDS011;28491;46.898;7.660;2023-02-01T09:16:54;29.08;;;14.13;;
42840;SDS011;28491;46.898;7.660;2023-02-01T09:19:20;16.67;;;10.07;;
42840;SDS011;28491;46.898;7.660;2023-02-01T09:21:45;13.48;;;8.32;;
42840;SDS011;28491;46.898;7.660;2023-02-01T09:24:11;13.55;;;8.02;;
42840;SDS011;28491;46.898;7.660;2023-02-01T09:26:37;13.00;;;8.88;;
42840;SDS011;28491;46.898;7.660;2023-02-01T09:29:03;13.77;;;8.07;;
42840;SDS011;28491;46.898;7.660;2023-02-01T09:31:31;15.03;;;9.70;;
42840;SDS011;28491;46.898;7.660;2023-02-01T09:33:57;16.00;;;8.15;;
42840;SDS011;28491;46.898;7.660;2023-02-01T09:36:23;13.48;;;7.80;;
42840;SDS011;28491;46.898;7.660;2023-02-01T09:38:49;14.43;;;8.93;;
42840;SDS011;28491;46.898;7.660;2023-02-01T09:47:15;17.08;;;9.63;;
42840;SDS011;28491;46.898;7.660;2023-02-01T09:50:05;13.20;;;9.00;;
42840;SDS011;28491;46.898;7.660;2023-02-01T09:52:50;12.65;;;7.43;;
42840;SDS011;28491;46.898;7.660;2023-02-01T09:55:23;11.00;;;6.60;;
42840;SDS011;28491;46.898;7.660;2023-02-01T09:58:07;15.30;;;7.68;;
42840;SDS011;28491;46.898;7.660;2023-02-01T10:00:39;11.45;;;6.50;;
42840;SDS011;28491;46.898;7.660;2023-02-01T10:03:11;10.13;;;6.15;;
42840;SDS011;28491;46.898;7.660;2023-02-01T10:08:19;7.88;;;5.45;;
42840;SDS011;28491;46.898;7.660;2023-02-01T10:10:57;10.15;;;5.78;;
42840;SDS011;28491;46.898;7.660;2023-02-01T10:16:25;9.35;;;5.65;;
42840;SDS011;28491;46.898;7.660;2023-02-01T10:29:58;11.23;;;7.28;;
42840;SDS011;28491;46.898;7.660;2023-02-01T10:32:29;10.10;;;5.80;;
42840;SDS011;28491;46.898;7.660;2023-02-01T10:35:00;8.77;;;4.82;;
42840;SDS011;28491;46.898;7.660;2023-02-01T10:37:34;7.45;;;5.07;;
42840;SDS011;28491;46.898;7.660;2023-02-01T10:40:02;11.02;;;5.90;;
42840;SDS011;28491;46.898;7.660;2023-02-01T10:42:41;7.82;;;4.32;;
42840;SDS011;28491;46.898;7.660;2023-02-01T10:45:11;16.08;;;6.10;;
42840;SDS011;28491;46.898;7.660;2023-02-01T10:47:45;13.70;;;6.30;;
42840;SDS011;28491;46.898;7.660;2023-02-01T10:52:44;13.98;;;6.93;;
42840;SDS011;28491;46.898;7.660;2023-02-01T10:56:18;16.23;;;6.28;;
42840;SDS011;28491;46.898;7.660;2023-02-01T10:58:17;9.02;;;6.05;;
42840;SDS011;28491;46.898;7.660;2023-02-01T11:00:46;14.02;;;6.10;;
42840;SDS011;28491;46.898;7.660;2023-02-01T11:06:01;9.10;;;4.68;;
42840;SDS011;28491;46.898;7.660;2023-02-01T11:08:33;7.63;;;4.32;;
42840;SDS011;28491;46.898;7.660;2023-02-01T11:11:26;8.52;;;4.30;;
42840;SDS011;28491;46.898;7.660;2023-02-01T11:14:02;10.38;;;5.55;;
42840;SDS011;28491;46.898;7.660;2023-02-01T11:16:39;10.48;;;5.35;;
42840;SDS011;28491;46.898;7.660;2023-02-01T11:19:05;13.63;;;5.07;;
42840;SDS011;28491;46.898;7.660;2023-02-01T11:21:32;9.40;;;4.80;;
42840;SDS011;28491;46.898;7.660;2023-02-01T11:24:05;10.18;;;5.55;;
42840;SDS011;28491;46.898;7.660;2023-02-01T11:26:34;9.25;;;4.68;;
42840;SDS011;28491;46.898;7.660;2023-02-01T11:29:09;6.50;;;4.05;;
42840;SDS011;28491;46.898;7.660;2023-02-01T11:31:38;9.85;;;3.47;;
42840;SDS011;28491;46.898;7.660;2023-02-01T11:34:17;5.25;;;3.22;;
42840;SDS011;28491;46.898;7.660;2023-02-01T11:41:42;7.30;;;4.47;;
42840;SDS011;28491;46.898;7.660;2023-02-01T11:44:18;3.00;;;1.98;;
42840;SDS011;28491;46.898;7.660;2023-02-01T11:46:47;2.55;;;1.65;;
42840;SDS011;28491;46.898;7.660;2023-02-01T11:49:21;4.55;;;2.10;;
42840;SDS011;28491;46.898;7.660;2023-02-01T11:51:59;3.53;;;1.90;;
42840;SDS011;28491;46.898;7.660;2023-02-01T11:54:49;2.63;;;1.83;;
42840;SDS011;28491;46.898;7.660;2023-02-01T12:03:37;2.95;;;1.75;;
42840;SDS011;28491;46.898;7.660;2023-02-01T12:06:08;3.72;;;1.70;;
42840;SDS011;28491;46.898;7.660;2023-02-01T12:11:48;4.70;;;1.58;;
42840;SDS011;28491;46.898;7.660;2023-02-01T12:14:36;2.95;;;1.30;;
42840;SDS011;28491;46.898;7.660;2023-02-01T12:22:38;4.88;;;2.08;;
42840;SDS011;28491;46.898;7.660;2023-02-01T12:33:20;7.38;;;2.20;;
42840;SDS011;28491;46.898;7.660;2023-02-01T12:38:52;2.25;;;1.63;;
42840;SDS011;28491;46.898;7.660;2023-02-01T12:41:32;1.92;;;1.48;;
42840;SDS011;28491;46.898;7.660;2023-02-01T12:44:05;2.40;;;1.85;;
42840;SDS011;28491;46.898;7.660;2023-02-01T12:46:41;2.20;;;1.20;;
42840;SDS011;28491;46.898;7.660;2023-02-01T12:49:14;2.00;;;1.50;;
42840;SDS011;28491;46.898;7.660;2023-02-01T12:51:44;2.28;;;1.55;;
42840;SDS011;28491;46.898;7.660;2023-02-01T12:56:46;2.55;;;1.75;;
42840;SDS011;28491;46.898;7.660;2023-02-01T12:59:19;1.65;;;1.20;;
42840;SDS011;28491;46.898;7.660;2023-02-01T13:01:56;3.25;;;1.65;;
42840;SDS011;28491;46.898;7.660;2023-02-01T13:04:31;2.75;;;1.58;;
42840;SDS011;28491;46.898;7.660;2023-02-01T13:07:04;2.25;;;1.48;;
42840;SDS011;28491;46.898;7.660;2023-02-01T13:12:50;3.50;;;2.00;;
42840;SDS011;28491;46.898;7.660;2023-02-01T13:15:31;3.15;;;1.90;;
42840;SDS011;28491;46.898;7.660;2023-02-01T13:18:03;3.85;;;1.80;;
42840;SDS011;28491;46.898;7.660;2023-02-01T13:20:37;2.70;;;1.50;;
42840;SDS011;28491;46.898;7.660;2023-02-01T13:23:15;2.53;;;1.67;;
42840;SDS011;28491;46.898;7.660;2023-02-01T13:25:50;2.80;;;1.58;;
42840;SDS011;28491;46.898;7.660;2023-02-01T13:28:36;2.63;;;1.58;;
42840;SDS011;28491;46.898;7.660;2023-02-01T13:36:17;2.40;;;1.38;;
42840;SDS011;28491;46.898;7.660;2023-02-01T13:39:06;2.67;;;1.77;;
42840;SDS011;28491;46.898;7.660;2023-02-01T13:42:01;7.28;;;4.28;;
42840;SDS011;28491;46.898;7.660;2023-02-01T13:44:40;2.05;;;1.50;;
42840;SDS011;28491;46.898;7.660;2023-02-01T13:47:22;2.92;;;1.80;;
42840;SDS011;28491;46.898;7.660;2023-02-01T13:49:58;2.45;;;1.65;;
42840;SDS011;28491;46.898;7.660;2023-02-01T13:52:40;5.13;;;2.25;;
42840;SDS011;28491;46.898;7.660;2023-02-01T13:57:38;2.20;;;1.50;;
42840;SDS011;28491;46.898;7.660;2023-02-01T14:00:51;3.43;;;2.20;;
42840;SDS011;28491;46.898;7.660;2023-02-01T14:23:41;3.80;;;2.00;;
42840;SDS011;28491;46.898;7.660;2023-02-01T14:26:09;3.30;;;2.33;;
42840;SDS011;28491;46.898;7.660;2023-02-01T14:28:41;3.20;;;2.30;;
42840;SDS011;28491;46.898;7.660;2023-02-01T14:31:31;4.18;;;1.98;;
42840;SDS011;28491;46.898;7.660;2023-02-01T14:34:00;3.25;;;2.28;;
42840;SDS011;28491;46.898;7.660;2023-02-01T14:36:43;3.97;;;2.00;;
42840;SDS011;28491;46.898;7.660;2023-02-01T14:39:19;3.05;;;1.92;;
42840;SDS011;28491;46.898;7.660;2023-02-01T14:41:55;4.10;;;2.80;;
42840;SDS011;28491;46.898;7.660;2023-02-01T14:44:27;3.85;;;2.25;;
42840;SDS011;28491;46.898;7.660;2023-02-01T14:47:09;4.65;;;2.88;;
42840;SDS011;28491;46.898;7.660;2023-02-01T14:49:49;5.60;;;3.00;;
42840;SDS011;28491;46.898;7.660;2023-02-01T14:52:50;5.35;;;2.90;;
42840;SDS011;28491;46.898;7.660;2023-02-01T14:55:34;4.40;;;2.80;;
42840;SDS011;28491;46.898;7.660;2023-02-01T15:01:18;3.47;;;2.50;;
42840;SDS011;28491;46.898;7.660;2023-02-01T15:06:38;5.78;;;2.90;;
42840;SDS011;28491;46.898;7.660;2023-02-01T15:12:03;4.40;;;2.67;;
42840;SDS011;28491;46.898;7.660;2023-02-01T15:14:43;3.85;;;2.35;;
42840;SDS011;28491;46.898;7.660;2023-02-01T15:17:18;2.97;;;2.00;;
42840;SDS011;28491;46.898;7.660;2023-02-01T15:19:55;4.90;;;2.05;;
42840;SDS011;28491;46.898;7.660;2023-02-01T15:22:22;4.05;;;2.22;;
42840;SDS011;28491;46.898;7.660;2023-02-01T15:24:54;4.85;;;2.25;;
42840;SDS011;28491;46.898;7.660;2023-02-01T15:27:21;3.88;;;2.15;;
42840;SDS011;28491;46.898;7.660;2023-02-01T15:29:47;3.35;;;2.47;;
42840;SDS011;28491;46.898;7.660;2023-02-01T15:32:34;3.53;;;2.15;;
42840;SDS011;28491;46.898;7.660;2023-02-01T15:35:00;3.55;;;2.08;;
42840;SDS011;28491;46.898;7.660;2023-02-01T15:37:27;3.30;;;1.95;;
42840;SDS011;28491;46.898;7.660;2023-02-01T15:42:52;4.30;;;1.73;;
42840;SDS011;28491;46.898;7.660;2023-02-01T15:45:26;2.47;;;1.60;;
42840;SDS011;28491;46.898;7.660;2023-02-01T15:47:56;3.38;;;2.08;;
42840;SDS011;28491;46.898;7.660;2023-02-01T15:50:23;3.13;;;1.88;;
42840;SDS011;28491;46.898;7.660;2023-02-01T15:52:53;2.88;;;1.90;;
42840;SDS011;28491;46.898;7.660;2023-02-01T15:57:59;3.88;;;2.25;;
42840;SDS011;28491;46.898;7.660;2023-02-01T16:00:29;3.20;;;2.08;;
42840;SDS011;28491;46.898;7.660;2023-02-01T16:03:01;5.65;;;1.65;;
42840;SDS011;28491;46.898;7.660;2023-02-01T16:05:33;3.72;;;1.80;;
42840;SDS011;28491;46.898;7.660;2023-02-01T16:08:05;1.80;;;1.40;;
42840;SDS011;28491;46.898;7.660;2023-02-01T16:10:38;2.20;;;1.73;;
42840;SDS011;28491;46.898;7.660;2023-02-01T16:13:06;2.65;;;2.08;;
42840;SDS011;28491;46.898;7.660;2023-02-01T16:15:32;2.65;;;1.70;;
42840;SDS011;28491;46.898;7.660;2023-02-01T16:17:57;3.03;;;1.90;;
42840;SDS011;28491;46.898;7.660;2023-02-01T16:20:23;1.85;;;1.52;;
42840;SDS011;28491;46.898;7.660;2023-02-01T16:22:48;2.40;;;1.67;;
42840;SDS011;28491;46.898;7.660;2023-02-01T16:25:14;6.00;;;2.00;;
42840;SDS011;28491;46.898;7.660;2023-02-01T16:27:39;3.95;;;2.38;;
42840;SDS011;28491;46.898;7.660;2023-02-01T16:30:05;5.00;;;2.90;;
42840;SDS011;28491;46.898;7.660;2023-02-01T16:32:34;4.13;;;2.47;;
42840;SDS011;28491;46.898;7.660;2023-02-01T16:35:03;2.77;;;1.80;;
42840;SDS011;28491;46.898;7.660;2023-02-01T16:37:43;4.90;;;2.10;;
42840;SDS011;28491;46.898;7.660;2023-02-01T16:40:12;5.53;;;1.92;;
42840;SDS011;28491;46.898;7.660;2023-02-01T16:42:39;19.15;;;3.92;;
42840;SDS011;28491;46.898;7.660;2023-02-01T16:45:04;2.35;;;1.88;;
42840;SDS011;28491;46.898;7.660;2023-02-01T16:47:30;4.55;;;2.75;;
42840;SDS011;28491;46.898;7.660;2023-02-01T16:49:56;4.88;;;2.95;;
42840;SDS011;28491;46.898;7.660;2023-02-01T16:52:23;6.43;;;2.63;;
42840;SDS011;28491;46.898;7.660;2023-02-01T16:54:50;4.05;;;2.35;;
42840;SDS011;28491;46.898;7.660;2023-02-01T16:57:18;4.55;;;2.38;;
42840;SDS011;28491;46.898;7.660;2023-02-01T16:59:47;3.33;;;2.60;;
42840;SDS011;28491;46.898;7.660;2023-02-01T17:02:13;3.28;;;2.28;;